WX9TRS Weather Reports


time (UTC)temp
F
wind
direction
speed
knots
gust
knots
rain 1hr
in
rain 24hr
in
rain mn
in
humidity
%
barometer
mb
20260906152005 72 79 1.7 5.2 0.00 0.00 0.00 82 1019.7
20260906151504 72 97 2.6 4.3 0.00 0.00 0.00 82 1019.6
20260906150505 71 74 0.9 2.6 0.00 0.00 0.00 83 1019.6
20260906150005 71 63 1.7 4.3 0.00 0.00 0.00 84 1019.6
20260906145505 71 77 4.3 6.1 0.00 0.00 0.00 84 1019.6
20260906144504 70 207 2.6 5.2 0.00 0.00 0.00 85 1019.6
20260906144004 69 78 1.7 4.3 0.00 0.00 0.00 87 1019.6
20260906143505 69 58 2.6 4.3 0.00 0.00 0.00 88 1019.6
20260906143005 69 216 1.7 4.3 0.00 0.00 0.00 89 1019.6
20260906142504 69 101 1.7 5.2 0.00 0.00 0.00 89 1019.6
20260906142004 68 102 1.7 5.2 0.00 0.00 0.00 90 1019.6
20260906141004 68 111 2.6 5.2 0.00 0.00 0.00 92 1019.6
20260906140504 67 129 1.7 5.2 0.00 0.00 0.00 92 1019.5
20260906140005 67 26 1.7 4.3 0.00 0.00 0.00 94 1019.5
20260906135004 66 45 2.6 4.3 0.00 0.00 0.00 94 1019.5
20260906134504 66 84 1.7 2.6 0.00 0.00 0.00 95 1019.7
20260906134004 66 103 1.7 4.3 0.00 0.00 0.00 95 1019.6
20260906133505 65 357 1.7 4.3 0.00 0.00 0.00 95 1019.6
20260906133004 65 111 1.7 2.6 0.00 0.00 0.00 95 1019.5
20260906132504 64 71 1.7 2.6 0.00 0.00 0.00 95 1019.5
20260906132004 64 50 0.9 1.7 0.00 0.00 0.00 95 1019.5
20260906131505 64 33 0.9 2.6 0.00 0.00 0.00 95 1019.6
20260906131004 63 19 0.9 2.6 0.00 0.00 0.00 95 1019.5
20260906130504 63 47 1.7 5.2 0.00 0.00 0.00 95 1019.5
20260906130004 63 38 1.7 5.2 0.00 0.00 0.00 95 1019.5
20260906125505 63 48 1.7 2.6 0.00 0.00 0.00 95 1019.5
20260906125005 62 51 0.9 2.6 0.00 0.00 0.00 95 1019.5
20260906124504 62 53 1.7 2.6 0.00 0.00 0.00 95 1019.6
20260906124004 62 21 0.0 0.9 0.00 0.00 0.00 95 1019.5
20260906123504 61 40 0.0 0.0 0.00 0.00 0.00 95 1019.4
20260906123005 61 40 0.0 0.0 0.00 0.00 0.00 95 1019.3
20260906122004 60 40 0.0 0.0 0.00 0.00 0.00 95 1019.2
20260906121504 60 40 0.0 0.0 0.00 0.00 0.00 94 1019.1
20260906120504 60 40 0.0 0.0 0.00 0.00 0.00 94 1019.1
20260906120005 60 40 0.0 0.0 0.00 0.00 0.00 94 1019.1
20260906115504 60 40 0.0 0.0 0.00 0.00 0.00 94 1019.1
20260906115004 60 40 0.0 0.0 0.00 0.00 0.00 94 1019.0
20260906114004 60 40 0.0 0.0 0.00 0.00 0.00 94 1018.9
20260906113504 60 40 0.0 0.0 0.00 0.00 0.00 94 1018.9
20260906112006 60 40 0.0 0.0 0.00 0.00 0.00 94 1018.8
20260906111005 61 40 0.0 0.0 0.00 0.00 0.00 94 1018.5
20260906110504 60 40 0.0 0.0 0.00 0.00 0.00 94 1018.4
20260906110004 60 40 0.0 0.0 0.00 0.00 0.00 94 1018.2
20260906104504 61 58 0.0 0.0 0.00 0.00 0.00 93 1018.1
20260906104004 61 58 0.0 0.0 0.00 0.00 0.00 93 1018.1
20260906103004 61 58 0.0 0.0 0.00 0.00 0.00 94 1018.1
20260906102504 61 58 0.0 0.0 0.00 0.00 0.00 94 1018.2
20260906102004 61 58 0.0 0.0 0.00 0.00 0.00 93 1018.3
20260906101505 61 58 0.0 0.0 0.00 0.00 0.00 93 1018.3
20260906101004 61 58 0.0 0.0 0.00 0.00 0.00 93 1018.2
20260906100504 61 58 0.0 0.0 0.00 0.00 0.00 93 1018.1
20260906100005 61 58 0.0 0.0 0.00 0.00 0.00 93 1018.1
20260906095504 61 58 0.0 0.0 0.00 0.00 0.00 93 1018.1
20260906095004 61 58 0.0 0.0 0.00 0.00 0.00 93 1018.1
20260906094504 61 58 0.0 0.0 0.00 0.00 0.00 93 1018.1
20260906094005 61 58 0.0 0.0 0.00 0.00 0.00 93 1018.2
20260906093504 61 58 0.0 0.0 0.00 0.00 0.00 93 1018.3
20260906093005 61 58 0.0 0.0 0.00 0.00 0.00 93 1018.3
20260906092504 61 58 0.0 0.0 0.00 0.00 0.00 93 1018.3
20260906092005 62 58 0.0 0.0 0.00 0.00 0.00 93 1018.1
20260906091004 62 58 0.0 0.0 0.00 0.00 0.00 93 1018.1
20260906090504 62 58 0.0 0.0 0.00 0.00 0.00 93 1018.1
20260906090004 62 58 0.0 0.0 0.00 0.00 0.00 93 1018.2
20260906085504 62 58 0.0 0.0 0.00 0.00 0.00 93 1018.3
20260906085004 62 58 0.0 0.0 0.00 0.00 0.00 93 1018.3
20260906084004 62 58 0.0 0.0 0.00 0.00 0.00 93 1018.1
20260906083004 62 58 0.0 0.0 0.00 0.00 0.00 93 1018.0
20260906082505 62 58 0.0 0.0 0.00 0.00 0.00 93 1018.1
20260906082004 62 58 0.0 0.0 0.00 0.00 0.00 93 1018.1
20260906081504 62 58 0.0 0.0 0.00 0.00 0.00 92 1018.1
20260906081004 62 58 0.0 0.0 0.00 0.00 0.00 92 1018.1
20260906080504 62 58 0.0 0.0 0.00 0.00 0.00 92 1018.1
20260906080004 62 58 0.0 0.0 0.00 0.00 0.00 92 1018.0
20260906075004 62 58 0.0 0.0 0.00 0.00 0.00 92 1018.0
20260906074004 62 58 0.0 0.0 0.00 0.00 0.00 92 1018.0
20260906073504 62 58 0.0 0.0 0.00 0.00 0.00 92 1017.9
20260906073005 62 58 0.0 0.0 0.00 0.00 0.00 92 1018.0
20260906072504 63 58 0.0 0.0 0.00 0.00 0.00 92 1018.0
20260906072004 63 58 0.0 0.0 0.00 0.00 0.00 92 1017.9
20260906071504 63 58 0.0 0.0 0.00 0.00 0.00 92 1017.9
20260906070504 63 58 0.0 0.0 0.00 0.00 0.00 92 1017.9
20260906070004 63 58 0.0 0.0 0.00 0.00 0.00 92 1017.8
20260906065004 63 58 0.0 0.0 0.00 0.00 0.00 92 1018.0
20260906063504 63 58 0.0 0.0 0.00 0.00 0.00 92 1018.0
20260906063004 63 58 0.0 0.0 0.00 0.00 0.00 91 1018.0
20260906062504 63 58 0.0 0.0 0.00 0.00 0.00 91 1018.0
20260906062004 64 58 0.0 0.0 0.00 0.00 0.00 91 1018.1
20260906061005 64 58 0.0 0.0 0.00 0.00 0.00 91 1018.2
20260906060505 64 58 0.0 0.0 0.00 0.00 0.00 91 1018.2
20260906060004 64 58 0.0 0.0 0.00 0.00 0.00 91 1018.1
20260906055504 64 58 0.0 0.0 0.00 0.00 0.00 91 1018.1
20260906055004 64 58 0.0 0.0 0.00 0.00 0.00 91 1018.0
20260906054504 64 58 0.0 0.0 0.00 0.00 0.00 91 1018.0
20260906054004 64 58 0.0 0.0 0.00 0.00 0.00 91 1018.0
20260906053504 64 58 0.0 0.0 0.00 0.00 0.00 91 1018.0
20260906052504 65 58 0.0 0.0 0.00 0.00 0.00 90 1017.8
20260906051503 65 58 0.0 0.0 0.00 0.00 0.00 90 1018.0
20260906051004 65 58 0.0 0.0 0.00 0.00 0.00 90 1018.0
20260906050504 65 58 0.0 0.0 0.00 0.00 0.00 90 1018.1
20260906050004 65 58 0.0 0.0 0.00 0.00 0.00 90 1018.2
20260906045504 65 58 0.0 0.0 0.00 0.00 0.00 90 1018.1
20260906045004 65 58 0.0 0.0 0.00 0.00 0.00 90 1018.1
20260906044504 66 58 0.0 0.0 0.00 0.00 0.00 90 1018.0
20260906043504 66 58 0.0 0.0 0.00 0.00 0.00 90 1017.8
20260906043004 66 58 0.0 0.0 0.00 0.00 0.00 89 1017.7
20260906042504 66 58 0.0 0.0 0.00 0.00 0.00 89 1017.7
20260906041505 67 58 0.0 0.0 0.00 0.00 0.00 89 1017.8
20260906041004 67 58 0.0 0.0 0.00 0.00 0.00 89 1017.7
20260906040504 67 58 0.0 0.0 0.00 0.00 0.00 89 1017.6
20260906040004 67 58 0.0 0.0 0.00 0.00 0.00 89 1017.5
20260906035504 67 58 0.0 1.7 0.00 0.00 0.00 89 1017.2
20260906034504 67 82 0.0 0.0 0.00 0.00 0.00 88 1017.1
20260906034004 67 82 0.0 0.0 0.00 0.00 0.00 88 1017.0
20260906033004 68 82 0.0 0.0 0.00 0.00 0.00 88 1017.1
20260906032504 68 85 1.7 2.6 0.00 0.00 0.00 87 1017.1
20260906031504 68 86 0.9 1.7 0.00 0.00 0.00 87 1017.0
20260906031003 68 100 0.9 1.7 0.00 0.00 0.00 87 1017.0
20260906030504 68 59 0.9 1.7 0.00 0.00 0.00 87 1016.9
20260906030004 69 73 0.9 2.6 0.00 0.00 0.00 86 1017.0
20260906025504 69 59 1.7 2.6 0.00 0.00 0.00 86 1017.0
20260906025004 69 106 0.9 2.6 0.00 0.00 0.00 86 1016.9
20260906024504 69 81 1.7 4.3 0.00 0.00 0.00 86 1016.9
20260906024004 69 87 1.7 4.3 0.00 0.00 0.00 86 1017.0
20260906023503 70 106 0.9 2.6 0.00 0.00 0.00 86 1016.9
20260906023004 70 29 1.7 6.1 0.00 0.00 0.00 86 1016.8
20260906022504 70 99 2.6 5.2 0.00 0.00 0.00 86 1016.8
20260906022004 70 18 1.7 5.2 0.00 0.00 0.00 86 1016.8
20260906021504 70 93 1.7 5.2 0.00 0.00 0.00 86 1016.6
20260906021004 70 62 1.7 5.2 0.00 0.00 0.00 85 1016.5
20260906020004 71 76 0.9 7.0 0.00 0.00 0.00 85 1016.3
20260906015504 71 36 1.7 4.3 0.00 0.00 0.00 85 1016.1
20260906015004 71 66 2.6 5.2 0.00 0.00 0.00 84 1016.0
20260906014504 71 46 2.6 4.3 0.00 0.00 0.00 84 1016.1
20260906013504 71 35 2.6 6.1 0.00 0.00 0.00 84 1016.1
20260906013003 71 33 3.5 7.0 0.00 0.00 0.00 84 1016.1
20260906012504 71 39 3.5 7.0 0.00 0.00 0.00 83 1016.0
20260906012004 71 44 2.6 6.1 0.00 0.00 0.00 83 1015.9
20260906011505 72 38 3.5 6.1 0.00 0.00 0.00 83 1015.9
20260906011004 72 38 3.5 6.1 0.00 0.00 0.00 82 1016.1
20260906010503 72 45 2.6 5.2 0.00 0.00 0.00 82 1016.1
20260906010004 72 39 2.6 5.2 0.00 0.00 0.00 82 1016.0
20260906005504 72 50 3.5 6.1 0.00 0.00 0.00 81 1016.0
20260906005004 73 70 1.7 2.6 0.00 0.00 0.00 80 1016.0
20260906004504 73 33 2.6 6.1 0.00 0.00 0.00 80 1016.0
20260906004003 73 47 1.7 5.2 0.00 0.00 0.00 80 1016.0
20260906003504 73 48 3.5 6.1 0.00 0.00 0.00 79 1015.9
20260906003004 73 41 4.3 7.8 0.00 0.00 0.00 79 1015.9
20260906002505 73 38 4.3 7.8 0.00 0.00 0.00 79 1015.9
20260906002004 74 34 3.5 7.8 0.00 0.00 0.00 79 1016.0
20260906001503 74 52 5.2 7.8 0.00 0.00 0.00 78 1016.0
20260906001004 74 51 4.3 7.0 0.00 0.00 0.00 78 1016.1
20260906000504 74 35 2.6 6.1 0.00 0.00 0.00 78 1016.1
20260906000004 75 52 4.3 7.8 0.00 0.00 0.00 78 1016.1
20260905235504 75 49 3.5 7.0 0.00 0.00 0.00 77 1016.2
20260905235004 75 40 1.7 6.1 0.00 0.00 0.00 77 1016.2
20260905234504 75 36 2.6 4.3 0.00 0.00 0.00 76 1016.1
20260905234003 75 342 1.7 4.3 0.00 0.00 0.00 75 1016.2
20260905233504 76 48 0.9 6.1 0.00 0.00 0.00 75 1016.2
20260905232503 76 36 4.3 7.0 0.00 0.00 0.00 74 1016.0
20260905231004 76 49 1.7 7.0 0.00 0.00 0.00 73 1016.1
20260905230504 76 16 6.1 8.7 0.00 0.00 0.00 72 1016.1
20260905230003 77 26 4.3 7.8 0.00 0.00 0.00 71 1016.1
20260905225503 77 32 2.6 5.2 0.00 0.00 0.00 71 1016.2
20260905225004 77 46 3.5 7.8 0.00 0.00 0.00 70 1016.1
20260905224504 77 52 4.3 7.8 0.00 0.00 0.00 70 1016.1
20260905224004 77 35 0.9 6.1 0.00 0.00 0.00 70 1016.1
20260905223503 78 338 1.7 4.3 0.00 0.00 0.00 70 1016.0
20260905222504 78 99 1.7 5.2 0.00 0.00 0.00 67 1015.9
20260905222004 79 31 4.3 7.8 0.00 0.00 0.00 66 1015.9
20260905221504 79 42 4.3 7.8 0.00 0.00 0.00 66 1015.8
20260905221003 79 43 2.6 7.0 0.00 0.00 0.00 67 1015.6
20260905220503 79 322 2.6 7.0 0.00 0.00 0.00 66 1015.6
20260905215504 79 39 2.6 7.8 0.00 0.00 0.00 66 1015.6
20260905214503 79 44 1.7 4.3 0.00 0.00 0.00 67 1015.7
20260905213504 79 64 0.9 2.6 0.00 0.00 0.00 67 1015.8
20260905213004 79 25 1.7 4.3 0.00 0.00 0.00 67 1015.8
20260905212503 79 12 1.7 5.2 0.00 0.00 0.00 67 1015.8
20260905211504 80 32 1.7 7.8 0.00 0.00 0.00 65 1015.8
20260905210503 80 300 1.7 5.2 0.00 0.00 0.00 64 1015.9
20260905210004 80 66 1.7 5.2 0.00 0.00 0.00 64 1015.9
20260905205504 81 296 0.9 4.3 0.00 0.00 0.00 64 1015.8
20260905205004 80 25 1.7 5.2 0.00 0.00 0.00 65 1015.8
20260905204503 80 18 4.3 7.0 0.00 0.00 0.00 66 1015.7
20260905204003 80 4 2.6 5.2 0.00 0.00 0.00 67 1015.7
20260905203504 80 38 2.6 6.1 0.00 0.00 0.00 68 1015.6
20260905203005 79 8 2.6 7.8 0.00 0.00 0.00 70 1015.5
20260905202504 79 33 4.3 10.4 0.00 0.00 0.00 68 1015.5
20260905202004 79 41 4.3 7.8 0.00 0.00 0.00 67 1015.5
20260905201503 80 30 2.6 7.8 0.00 0.00 0.00 67 1015.6
20260905201003 80 36 2.6 7.8 0.00 0.00 0.00 68 1015.6
20260905200504 80 32 3.5 7.0 0.00 0.00 0.00 68 1015.7
20260905200004 80 44 3.5 6.1 0.00 0.00 0.00 69 1015.8
20260905195503 79 333 2.6 5.2 0.00 0.00 0.00 70 1015.8
20260905195004 79 332 4.3 8.7 0.00 0.00 0.00 70 1015.9
20260905194503 79 24 2.6 5.2 0.00 0.00 0.00 69 1015.9
20260905193504 79 1 4.3 7.8 0.00 0.00 0.00 68 1015.9
20260905192503 78 46 3.5 8.7 0.00 0.00 0.00 70 1016.1
20260905191504 78 45 4.3 7.8 0.00 0.00 0.00 71 1016.1
20260905191004 78 25 4.3 7.0 0.00 0.00 0.00 71 1016.1
20260905190004 78 14 2.6 5.2 0.00 0.00 0.00 72 1016.1
20260905185504 78 50 4.3 7.0 0.00 0.00 0.00 71 1016.1
20260905185005 78 48 3.5 7.8 0.00 0.00 0.00 71 1016.2
20260905184505 78 16 2.6 7.0 0.00 0.00 0.00 70 1016.2
20260905184004 78 29 2.6 6.1 0.00 0.00 0.00 71 1016.2
20260905183005 78 34 3.5 7.0 0.00 0.00 0.00 71 1016.2
20260905182505 78 47 1.7 6.1 0.00 0.00 0.00 72 1016.3
20260905181504 77 22 2.6 6.1 0.00 0.00 0.00 73 1016.3
20260905181005 77 41 2.6 7.8 0.00 0.00 0.00 73 1016.3
20260905180504 78 39 4.3 7.0 0.00 0.00 0.00 73 1016.2
20260905180005 78 36 3.5 7.0 0.00 0.00 0.00 73 1016.3
20260905175505 78 42 2.6 5.2 0.00 0.00 0.00 74 1016.3
20260905175005 77 29 2.6 5.2 0.00 0.00 0.00 74 1016.3
20260905174505 77 292 1.7 4.3 0.00 0.00 0.00 74 1016.3
20260905174005 77 45 2.6 8.7 0.00 0.00 0.00 74 1016.3
20260905173504 77 49 4.3 7.8 0.00 0.00 0.00 74 1016.4
20260905173004 77 37 2.6 7.0 0.00 0.00 0.00 73 1016.4
20260905172504 78 26 5.2 7.8 0.00 0.00 0.00 73 1016.4
20260905172005 78 356 3.5 7.0 0.00 0.00 0.00 74 1016.4
20260905171505 78 50 0.9 5.2 0.00 0.00 0.00 75 1016.5
20260905171004 77 12 1.7 5.2 0.00 0.00 0.00 75 1016.4
20260905170005 77 291 0.9 4.3 0.00 0.00 0.00 75 1016.5
20260905165506 77 24 1.7 5.2 0.00 0.00 0.00 75 1016.5
20260905165004 77 53 3.5 6.1 0.00 0.00 0.00 75 1016.5
20260905164504 77 26 1.7 6.1 0.00 0.00 0.00 75 1016.5
20260905164005 77 21 2.6 6.1 0.00 0.00 0.00 75 1016.5
20260905163505 77 51 0.9 5.2 0.00 0.00 0.00 77 1016.5
20260905163004 76 345 1.7 6.1 0.00 0.00 0.00 78 1016.5
20260905162504 75 56 2.6 7.0 0.00 0.00 0.00 80 1016.4
20260905162005 74 88 1.7 6.1 0.00 0.00 0.00 81 1016.5
20260905161004 74 44 3.5 6.1 0.00 0.00 0.00 82 1016.5
20260905160504 74 39 4.3 7.8 0.00 0.00 0.00 83 1016.4
20260905160004 74 48 0.9 4.3 0.00 0.00 0.00 83 1016.4
20260905155505 73 54 2.6 7.0 0.00 0.00 0.00 84 1016.4
20260905155005 73 99 2.6 4.3 0.00 0.00 0.00 84 1016.5
20260905154505 73 30 1.7 6.1 0.00 0.00 0.00 84 1016.6
20260905153504 73 56 1.7 4.3 0.00 0.00 0.00 85 1016.4
20260905152505 73 72 2.6 6.1 0.00 0.00 0.00 85 1016.5